createdAt,value
2019-01-20T00:00:15.716Z,69.93
2019-01-20T00:02:56.699Z,75.47
2019-01-20T00:05:38.568Z,72.00
2019-01-20T00:08:19.822Z,70.17
2019-01-20T00:11:01.265Z,69.30
2019-01-20T00:13:42.747Z,72.60
2019-01-20T00:16:23.928Z,85.40
2019-01-20T00:19:05.067Z,86.83
2019-01-20T00:21:44.379Z,84.60
2019-01-20T00:24:25.615Z,93.93
2019-01-20T00:27:06.559Z,94.10
2019-01-20T00:29:48.343Z,96.03
2019-01-20T00:32:29.920Z,95.63
2019-01-20T00:35:11.161Z,98.00
2019-01-20T00:37:52.038Z,98.23
2019-01-20T00:40:33.678Z,96.17
2019-01-20T00:43:14.543Z,96.07
2019-01-20T00:45:55.431Z,96.93
2019-01-20T00:48:36.282Z,96.80
2019-01-20T00:51:17.944Z,100.37
2019-01-20T00:53:59.297Z,96.87
2019-01-20T00:56:40.104Z,104.03
2019-01-20T00:59:21.630Z,108.40
2019-01-20T01:02:02.913Z,107.33
2019-01-20T01:04:44.090Z,103.33
2019-01-20T01:07:25.608Z,112.63
2019-01-20T01:10:06.757Z,107.70
2019-01-20T01:12:47.602Z,107.30
2019-01-20T01:15:28.790Z,107.33
2019-01-20T01:18:10.126Z,106.67
2019-01-20T01:20:51.467Z,103.73
2019-01-20T01:23:33.232Z,96.63
2019-01-20T01:26:14.389Z,98.70
2019-01-20T01:28:56.238Z,94.67
2019-01-20T01:31:37.489Z,98.03
2019-01-20T01:34:18.308Z,96.37
2019-01-20T01:36:59.755Z,95.53
2019-01-20T01:39:40.658Z,94.13
2019-01-20T01:42:21.557Z,94.00
2019-01-20T01:45:03.411Z,93.53
2019-01-20T01:47:45.310Z,90.77
2019-01-20T01:50:26.401Z,90.20
2019-01-20T01:53:07.272Z,88.83
2019-01-20T01:55:48.457Z,84.43
2019-01-20T01:58:29.650Z,82.50
2019-01-20T02:01:10.386Z,84.63
2019-01-20T02:03:51.339Z,80.03
2019-01-20T02:06:31.960Z,81.83
2019-01-20T02:09:13.052Z,80.87
2019-01-20T02:11:54.621Z,82.83
2019-01-20T02:14:36.445Z,83.07
2019-01-20T02:17:17.872Z,81.53
2019-01-20T02:19:58.786Z,82.83
2019-01-20T02:22:39.639Z,81.23
2019-01-20T02:25:20.940Z,80.37
2019-01-20T02:28:02.368Z,75.93
2019-01-20T02:30:43.290Z,80.93
2019-01-20T02:33:24.844Z,82.73
2019-01-20T02:36:05.816Z,82.07
2019-01-20T02:38:46.688Z,80.73
2019-01-20T02:41:28.088Z,82.10
2019-01-20T02:44:09.233Z,86.93
2019-01-20T02:46:50.652Z,92.23
2019-01-20T02:49:32.006Z,104.63
2019-01-20T02:52:13.084Z,95.47
2019-01-20T02:54:54.681Z,90.53
2019-01-20T02:57:35.985Z,92.70
2019-01-20T03:00:17.233Z,88.70
2019-01-20T03:02:56.813Z,87.17
2019-01-20T03:05:45.085Z,85.20
2019-01-20T03:08:25.873Z,84.60
2019-01-20T03:11:06.488Z,86.90
2019-01-20T03:13:47.251Z,83.43
2019-01-20T03:16:27.900Z,81.17
2019-01-20T03:19:08.787Z,84.93
2019-01-20T03:21:50.440Z,84.60
2019-01-20T03:24:31.780Z,81.40
2019-01-20T03:27:12.368Z,73.43
2019-01-20T03:29:53.259Z,74.83
2019-01-20T03:32:34.504Z,72.10
2019-01-20T03:35:14.398Z,72.17
2019-01-20T03:37:55.665Z,72.67
2019-01-20T03:40:35.026Z,71.70
2019-01-20T03:43:15.883Z,72.40
2019-01-20T03:45:57.059Z,74.30
2019-01-20T03:48:36.355Z,74.87
2019-01-20T03:51:17.448Z,76.93
2019-01-20T03:53:58.051Z,80.83
2019-01-20T03:56:38.636Z,78.13
2019-01-20T03:59:19.489Z,85.13
2019-01-20T04:02:00.415Z,84.73
2019-01-20T04:04:39.979Z,85.93
2019-01-20T04:07:29.300Z,83.63
2019-01-20T04:10:10.795Z,86.80
2019-01-20T04:12:50.409Z,90.27
2019-01-20T04:15:31.718Z,85.87
2019-01-20T04:18:12.793Z,89.53
2019-01-20T04:20:53.617Z,86.33
2019-01-20T04:23:32.928Z,86.73
2019-01-20T04:26:21.451Z,86.33
2019-01-20T04:29:03.127Z,86.47
2019-01-20T04:31:44.631Z,87.73
2019-01-20T04:34:25.475Z,92.63
2019-01-20T04:37:06.950Z,90.97
2019-01-20T04:39:48.142Z,91.07
2019-01-20T04:42:29.663Z,94.13
2019-01-20T04:45:11.027Z,92.50
2019-01-20T04:47:50.417Z,98.53
2019-01-20T04:50:31.320Z,99.13
2019-01-20T04:53:12.178Z,98.63
2019-01-20T04:55:53.192Z,100.40
2019-01-20T04:58:35.163Z,96.37
2019-01-20T05:01:16.608Z,99.70
2019-01-20T05:03:57.912Z,99.87
2019-01-20T05:06:38.634Z,96.77
2019-01-20T05:09:20.195Z,96.70
2019-01-20T05:12:01.183Z,94.63
2019-01-20T05:14:42.886Z,94.87
2019-01-20T05:17:23.859Z,95.60
2019-01-20T05:20:04.551Z,98.93
2019-01-20T05:22:45.221Z,100.77
2019-01-20T05:25:25.219Z,99.83
2019-01-20T05:28:06.455Z,95.33
2019-01-20T05:30:47.121Z,97.03
2019-01-20T05:33:28.842Z,100.37
2019-01-20T05:36:10.015Z,96.90
2019-01-20T05:38:50.553Z,99.20
2019-01-20T05:41:31.463Z,108.37
2019-01-20T05:44:12.308Z,101.47
2019-01-20T05:46:53.695Z,106.73
2019-01-20T05:49:35.019Z,116.50
2019-01-20T05:52:16.020Z,105.67
2019-01-20T05:54:55.343Z,102.90
2019-01-20T05:57:37.171Z,99.23
2019-01-20T06:00:18.723Z,101.50
2019-01-20T06:03:00.307Z,100.67
2019-01-20T06:05:40.880Z,97.97
2019-01-20T06:08:22.271Z,96.80
2019-01-20T06:11:03.352Z,94.30
2019-01-20T06:13:44.919Z,94.93
2019-01-20T06:16:26.379Z,90.67
2019-01-20T06:19:06.008Z,91.97
2019-01-20T06:21:47.256Z,90.47
2019-01-20T06:24:28.233Z,87.90
2019-01-20T06:27:09.628Z,90.43
2019-01-20T06:29:51.112Z,87.70
2019-01-20T06:32:32.209Z,83.93
2019-01-20T06:35:13.308Z,84.00
2019-01-20T06:37:54.008Z,89.00
2019-01-20T06:40:34.876Z,90.70
2019-01-20T06:43:16.774Z,88.10
2019-01-20T06:45:58.287Z,83.47
2019-01-20T06:48:39.075Z,88.57
2019-01-20T06:51:18.582Z,90.90
2019-01-20T06:53:59.383Z,90.53
2019-01-20T06:56:40.184Z,93.10
2019-01-20T06:59:21.589Z,108.37
2019-01-20T07:02:02.474Z,112.33
2019-01-20T07:04:41.975Z,111.30
2019-01-20T07:07:30.807Z,112.27
2019-01-20T07:10:10.621Z,105.03
2019-01-20T07:12:59.676Z,105.10
2019-01-20T07:15:41.282Z,93.87
2019-01-20T07:18:22.428Z,91.77
2019-01-20T07:21:03.063Z,90.03
2019-01-20T07:23:43.766Z,84.53
2019-01-20T07:26:24.338Z,83.70
2019-01-20T07:29:05.624Z,84.43
2019-01-20T07:31:46.995Z,79.20
2019-01-20T07:34:28.763Z,78.40
2019-01-20T07:37:10.425Z,79.90
2019-01-20T07:39:51.618Z,81.67
2019-01-20T07:42:33.067Z,79.80
2019-01-20T07:45:14.858Z,79.13
2019-01-20T07:47:55.677Z,77.93
2019-01-20T07:50:36.579Z,79.30
2019-01-20T07:53:17.995Z,78.93
2019-01-20T07:55:58.636Z,81.70
2019-01-20T07:58:40.004Z,84.03
2019-01-20T08:01:21.156Z,79.73
2019-01-20T08:04:02.665Z,80.80
2019-01-20T08:06:43.328Z,86.90
2019-01-20T08:09:24.086Z,76.80
2019-01-20T08:12:05.655Z,70.13
2019-01-20T08:14:46.867Z,70.40
2019-01-20T08:17:28.144Z,68.90
2019-01-20T08:20:09.434Z,71.93
2019-01-20T08:22:49.148Z,73.17
2019-01-20T08:25:37.748Z,75.73
2019-01-20T08:28:19.077Z,78.37
2019-01-20T08:31:00.590Z,75.53
2019-01-20T08:33:41.575Z,74.30
2019-01-20T08:36:23.237Z,75.47
2019-01-20T08:39:04.996Z,75.23
2019-01-20T08:41:45.864Z,76.13
2019-01-20T08:44:26.768Z,76.53
2019-01-20T08:47:08.144Z,75.73
2019-01-20T08:49:49.018Z,78.40
2019-01-20T08:52:30.435Z,76.43
2019-01-20T08:55:12.067Z,69.33
2019-01-20T08:57:53.193Z,76.43
2019-01-20T09:00:34.166Z,74.00
2019-01-20T09:03:15.350Z,67.87
2019-01-20T09:05:56.950Z,68.30
2019-01-20T09:08:38.388Z,62.43
2019-01-20T09:11:18.473Z,67.77
2019-01-20T09:13:59.970Z,66.97
2019-01-20T09:16:40.650Z,67.57
2019-01-20T09:19:21.513Z,75.37
2019-01-20T09:22:02.948Z,78.40
2019-01-20T09:24:44.551Z,77.03
2019-01-20T09:27:24.383Z,79.53
2019-01-20T09:30:14.902Z,83.33
2019-01-20T09:32:56.003Z,86.20
2019-01-20T09:35:37.511Z,86.20
2019-01-20T09:38:18.588Z,87.70
2019-01-20T09:40:59.844Z,84.90
2019-01-20T09:43:47.147Z,82.53
2019-01-20T09:46:24.579Z,76.27
2019-01-20T09:49:05.586Z,78.07
2019-01-20T09:51:47.252Z,77.47
2019-01-20T09:54:29.020Z,78.67
2019-01-20T09:57:10.435Z,77.07
2019-01-20T09:59:51.734Z,87.13
2019-01-20T10:02:33.376Z,80.63
2019-01-20T10:05:14.624Z,74.40
2019-01-20T10:07:55.158Z,71.97
2019-01-20T10:10:36.821Z,69.33
2019-01-20T10:13:18.386Z,68.60
2019-01-20T10:16:00.494Z,55.67
2019-01-20T10:18:41.431Z,56.33
2019-01-20T10:21:21.200Z,58.53
2019-01-20T10:24:00.590Z,58.73
2019-01-20T10:26:41.977Z,56.47
2019-01-20T10:29:23.225Z,59.87
2019-01-20T10:32:04.289Z,67.87
2019-01-20T10:34:46.083Z,71.27
2019-01-20T10:37:27.189Z,72.73
2019-01-20T10:40:08.841Z,74.80
2019-01-20T10:42:50.277Z,72.57
2019-01-20T10:45:31.918Z,75.50
2019-01-20T10:48:12.618Z,74.30
2019-01-20T10:50:53.222Z,74.87
2019-01-20T10:53:33.891Z,82.30
2019-01-20T10:56:15.496Z,81.43
2019-01-20T10:58:56.116Z,75.50
2019-01-20T11:01:35.939Z,76.03
2019-01-20T11:04:17.742Z,77.67
2019-01-20T11:06:58.967Z,75.67
2019-01-20T11:09:39.856Z,76.53
2019-01-20T11:12:20.866Z,73.03
2019-01-20T11:15:02.146Z,75.20
2019-01-20T11:17:43.325Z,74.00
2019-01-20T11:20:24.750Z,75.50
2019-01-20T11:23:04.579Z,81.53
2019-01-20T11:25:53.121Z,76.07
2019-01-20T11:28:34.497Z,76.33
2019-01-20T11:31:16.556Z,75.00
2019-01-20T11:33:57.621Z,70.37
2019-01-20T11:36:38.970Z,72.37
2019-01-20T11:39:20.376Z,72.97
2019-01-20T11:42:01.937Z,68.97
2019-01-20T11:44:43.636Z,66.90
2019-01-20T11:47:24.849Z,67.67
2019-01-20T11:50:07.011Z,68.43
2019-01-20T11:52:48.406Z,64.50
2019-01-20T11:55:29.951Z,66.87
2019-01-20T11:58:11.115Z,66.07
2019-01-20T12:00:52.779Z,57.70
2019-01-20T12:03:34.097Z,59.97
2019-01-20T12:06:15.382Z,60.03
2019-01-20T12:08:54.814Z,53.77
2019-01-20T12:11:54.161Z,56.70
2019-01-20T12:14:35.362Z,49.43
2019-01-20T12:17:16.436Z,46.33
2019-01-20T12:19:56.556Z,43.27
2019-01-20T12:22:37.883Z,47.63
2019-01-20T12:25:19.507Z,43.63
2019-01-20T12:28:00.833Z,50.27
2019-01-20T12:30:42.858Z,48.13
2019-01-20T12:33:24.718Z,47.00
2019-01-20T12:36:05.644Z,47.90
2019-01-20T12:38:46.370Z,50.07
2019-01-20T12:41:27.313Z,45.77
2019-01-20T12:44:06.677Z,45.53
2019-01-20T12:46:48.441Z,46.47
2019-01-20T12:49:29.435Z,47.80
2019-01-20T12:52:10.662Z,44.07
2019-01-20T12:54:50.109Z,43.10
2019-01-20T12:57:30.911Z,40.20
2019-01-20T13:00:12.370Z,42.07
2019-01-20T13:02:53.763Z,39.60
2019-01-20T13:05:35.279Z,39.23
2019-01-20T13:08:16.487Z,42.80
2019-01-20T13:10:57.307Z,40.27
2019-01-20T13:13:38.183Z,39.40
2019-01-20T13:16:19.175Z,42.27
2019-01-20T13:18:59.844Z,39.80
2019-01-20T13:21:40.770Z,36.53
2019-01-20T13:24:21.667Z,37.03
2019-01-20T13:27:02.292Z,34.43
2019-01-20T13:29:43.155Z,34.00
2019-01-20T13:32:24.591Z,32.93
2019-01-20T13:35:06.204Z,30.10
2019-01-20T13:37:47.690Z,31.97
2019-01-20T13:40:28.768Z,35.17
2019-01-20T13:43:10.641Z,32.80
2019-01-20T13:45:52.362Z,34.30
2019-01-20T13:48:33.665Z,36.33
2019-01-20T13:51:14.535Z,40.63
2019-01-20T13:53:55.256Z,38.83
2019-01-20T13:56:36.263Z,40.90
2019-01-20T13:59:17.371Z,41.23
2019-01-20T14:01:58.790Z,40.90
2019-01-20T14:04:39.898Z,45.07
2019-01-20T14:07:20.935Z,46.47
2019-01-20T14:10:02.334Z,42.70
2019-01-20T14:12:44.115Z,41.23
2019-01-20T14:15:24.019Z,33.13
2019-01-20T14:18:12.705Z,34.33
2019-01-20T14:20:53.527Z,30.37
2019-01-20T14:23:34.850Z,27.47
2019-01-20T14:26:16.615Z,29.23
2019-01-20T14:28:57.838Z,32.17
2019-01-20T14:31:39.579Z,29.93
2019-01-20T14:34:20.636Z,31.10
2019-01-20T14:37:01.860Z,31.37
2019-01-20T14:39:42.896Z,36.03
2019-01-20T14:42:24.740Z,90.83
2019-01-20T14:45:05.688Z,126.47
2019-01-20T14:47:47.123Z,132.63
2019-01-20T14:50:28.784Z,135.90
2019-01-20T14:53:10.274Z,140.80
2019-01-20T14:55:51.511Z,157.63
2019-01-20T14:58:33.048Z,161.10
2019-01-20T15:01:14.290Z,165.67
2019-01-20T15:03:56.017Z,162.30
2019-01-20T15:06:37.528Z,153.80
2019-01-20T15:09:18.413Z,155.43
2019-01-20T15:11:58.104Z,159.63
2019-01-20T15:14:39.108Z,162.73
2019-01-20T15:17:20.477Z,163.07
2019-01-20T15:20:01.458Z,163.20
2019-01-20T15:22:43.426Z,163.60
2019-01-20T15:25:24.114Z,164.77
2019-01-20T15:28:05.205Z,168.60
2019-01-20T15:30:46.912Z,173.07
2019-01-20T15:33:28.823Z,176.20
2019-01-20T15:36:09.599Z,180.60
2019-01-20T15:38:50.164Z,182.97
2019-01-20T15:41:31.266Z,184.73
2019-01-20T15:44:12.145Z,184.97
2019-01-20T15:46:53.685Z,191.87
2019-01-20T15:49:35.283Z,181.33
2019-01-20T15:52:16.860Z,176.27
2019-01-20T15:54:56.318Z,162.73
2019-01-20T15:57:37.872Z,153.07
2019-01-20T16:00:19.242Z,153.20
2019-01-20T16:03:00.786Z,147.13
2019-01-20T16:05:41.940Z,131.40
2019-01-20T16:08:23.376Z,122.27
2019-01-20T16:11:05.048Z,113.03
2019-01-20T16:13:46.385Z,106.43
2019-01-20T16:16:27.497Z,100.10
2019-01-20T16:19:08.984Z,101.67
2019-01-20T16:21:50.631Z,101.77
2019-01-20T16:24:31.585Z,97.77
2019-01-20T16:27:12.446Z,93.60
2019-01-20T16:29:53.991Z,93.37
2019-01-20T16:32:35.330Z,87.20
2019-01-20T16:35:16.075Z,90.90
2019-01-20T16:37:57.866Z,90.33
2019-01-20T16:40:38.998Z,85.87
2019-01-20T16:43:20.177Z,84.53
2019-01-20T16:46:01.185Z,87.17
2019-01-20T16:48:42.165Z,88.87
2019-01-20T16:51:24.222Z,86.10
2019-01-20T16:54:05.176Z,85.80
2019-01-20T16:56:46.443Z,93.03
2019-01-20T16:59:27.818Z,88.97
2019-01-20T17:02:08.581Z,103.97
2019-01-20T17:04:50.298Z,99.40
2019-01-20T17:07:31.210Z,97.27
2019-01-20T17:10:12.493Z,94.13
2019-01-20T17:12:54.408Z,85.47
2019-01-20T17:15:39.846Z,78.53
2019-01-20T17:18:18.527Z,79.10
2019-01-20T17:20:59.590Z,70.27
2019-01-20T17:23:40.896Z,71.17
2019-01-20T17:26:22.521Z,68.97
2019-01-20T17:29:04.008Z,68.67
2019-01-20T17:31:43.923Z,68.07
2019-01-20T17:34:32.434Z,71.60
2019-01-20T17:37:14.110Z,74.03
2019-01-20T17:39:55.626Z,80.63
2019-01-20T17:42:36.435Z,78.77
2019-01-20T17:45:17.500Z,76.60
2019-01-20T17:47:57.239Z,80.70
2019-01-20T17:50:38.526Z,77.47
2019-01-20T17:53:19.318Z,76.83
2019-01-20T17:56:00.968Z,81.87
2019-01-20T17:58:42.842Z,82.37
2019-01-20T18:01:23.976Z,80.93
2019-01-20T18:04:05.320Z,80.10
2019-01-20T18:10:06.380Z,75.07
2019-01-20T18:12:47.435Z,76.80
2019-01-20T18:15:29.233Z,78.17
2019-01-20T18:18:10.303Z,75.53
2019-01-20T18:20:50.899Z,77.70
2019-01-20T18:23:31.856Z,82.50
2019-01-20T18:26:12.851Z,79.27
2019-01-20T18:28:54.371Z,102.73
2019-01-20T18:31:34.061Z,126.70
2019-01-20T18:34:22.374Z,203.00
2019-01-20T18:37:03.982Z,178.00
2019-01-20T18:43:06.200Z,287.73
2019-01-20T18:45:47.446Z,302.13
2019-01-20T18:48:29.364Z,277.53
2019-01-20T18:51:10.157Z,274.90
2019-01-20T18:53:49.509Z,242.93
2019-01-20T18:56:37.834Z,245.60
2019-01-20T18:59:18.899Z,221.77
2019-01-20T19:02:00.870Z,218.80
2019-01-20T19:04:42.029Z,180.80
2019-01-20T19:07:23.527Z,176.63
2019-01-20T19:10:05.003Z,165.77
2019-01-20T19:12:46.022Z,187.43
2019-01-20T19:15:27.429Z,201.33
2019-01-20T19:18:08.597Z,204.13
2019-01-20T19:20:48.062Z,192.93
2019-01-20T19:23:36.401Z,180.17
2019-01-20T19:26:17.793Z,156.53
2019-01-20T19:29:02.920Z,152.83
2019-01-20T19:31:40.116Z,144.30
2019-01-20T19:37:29.884Z,118.20
2019-01-20T19:40:11.530Z,109.73
2019-01-20T19:42:52.489Z,107.73
2019-01-20T19:45:33.467Z,100.40
2019-01-20T19:48:20.029Z,101.57
2019-01-20T19:50:57.516Z,97.53
2019-01-20T19:53:38.787Z,98.43
2019-01-20T19:56:20.385Z,102.47
2019-01-20T19:59:01.460Z,102.97
2019-01-20T20:01:42.576Z,103.67
2019-01-20T20:04:23.601Z,104.10
2019-01-20T20:07:04.772Z,104.03
2019-01-20T20:09:46.415Z,103.33
2019-01-20T20:12:27.971Z,102.63
2019-01-20T20:15:09.209Z,97.90
2019-01-20T20:17:50.865Z,97.10
2019-01-20T20:20:32.329Z,95.77
2019-01-20T20:23:13.690Z,94.17
2019-01-20T20:25:54.553Z,93.90
2019-01-20T20:28:36.007Z,90.80
2019-01-20T20:31:17.575Z,90.07
2019-01-20T20:33:59.405Z,89.30
2019-01-20T20:36:41.043Z,83.57
2019-01-20T20:39:22.666Z,87.53
2019-01-20T20:42:03.831Z,88.70
2019-01-20T20:44:45.206Z,83.03
2019-01-20T20:47:26.776Z,85.17
2019-01-20T20:50:08.570Z,89.50
2019-01-20T20:52:50.155Z,88.43
2019-01-20T20:55:31.539Z,91.47
2019-01-20T20:58:12.993Z,91.53
2019-01-20T21:00:54.579Z,89.30
2019-01-20T21:03:36.084Z,94.53
2019-01-20T21:06:17.311Z,89.07
2019-01-20T21:08:58.432Z,89.73
2019-01-20T21:11:39.497Z,88.50
2019-01-20T21:14:21.381Z,93.37
2019-01-20T21:17:02.235Z,95.43
2019-01-20T21:19:43.316Z,94.73
2019-01-20T21:22:24.912Z,95.70
2019-01-20T21:25:06.148Z,95.93
2019-01-20T21:27:47.904Z,99.43
2019-01-20T21:30:28.953Z,102.10
2019-01-20T21:33:10.235Z,104.00
2019-01-20T21:35:52.104Z,106.73
2019-01-20T21:38:33.878Z,105.43
2019-01-20T21:41:15.187Z,104.30
2019-01-20T21:43:56.410Z,135.63
2019-01-20T21:46:37.949Z,137.90
2019-01-20T21:49:19.659Z,164.50
2019-01-20T21:52:01.238Z,174.47
2019-01-20T21:54:42.746Z,173.30
2019-01-20T21:57:24.158Z,173.87
2019-01-20T22:00:05.437Z,171.27
2019-01-20T22:02:46.137Z,169.80
2019-01-20T22:05:27.595Z,171.97
2019-01-20T22:08:08.427Z,169.13
2019-01-20T22:10:49.131Z,167.80
2019-01-20T22:13:30.522Z,169.50
2019-01-20T22:16:11.983Z,162.30
2019-01-20T22:18:52.992Z,158.27
2019-01-20T22:21:34.315Z,166.30
2019-01-20T22:24:16.176Z,160.00
2019-01-20T22:26:57.269Z,150.23
2019-01-20T22:29:38.949Z,153.87
2019-01-20T22:32:20.446Z,155.37
2019-01-20T22:35:01.804Z,159.97
2019-01-20T22:37:43.207Z,157.47
2019-01-20T22:40:24.101Z,152.87
2019-01-20T22:43:04.932Z,141.87
2019-01-20T22:45:45.619Z,151.50
2019-01-20T22:48:26.260Z,152.40
2019-01-20T22:51:07.278Z,148.97
2019-01-20T22:53:47.972Z,142.83
2019-01-20T22:56:28.712Z,148.23
2019-01-20T22:59:10.075Z,148.47
2019-01-20T23:01:50.946Z,150.27
2019-01-20T23:04:32.401Z,156.73
2019-01-20T23:07:13.031Z,160.20
2019-01-20T23:09:53.970Z,177.00
2019-01-20T23:12:35.209Z,175.17
2019-01-20T23:15:16.301Z,178.30
2019-01-20T23:17:57.525Z,171.60
2019-01-20T23:20:38.702Z,174.70
2019-01-20T23:23:19.495Z,171.90
2019-01-20T23:26:00.620Z,183.83
2019-01-20T23:28:41.485Z,183.23
2019-01-20T23:31:20.911Z,180.80
2019-01-20T23:34:02.220Z,188.23
2019-01-20T23:36:41.683Z,197.10
2019-01-20T23:39:23.051Z,191.03
2019-01-20T23:42:04.088Z,199.17
2019-01-20T23:44:45.104Z,195.73
2019-01-20T23:47:25.797Z,194.07
2019-01-20T23:50:07.110Z,179.27
2019-01-20T23:52:48.517Z,181.23
2019-01-20T23:55:29.474Z,177.30
2019-01-20T23:58:10.477Z,172.40
